sensor_id;sensor_type;location;lat;lon;timestamp;pressure;altitude;pressure_sealevel;temperature;humidity
60049;BME280;45925;45.544;6.756;2022-09-09T00:15:37;87149.31;;;12.95;59.62
60049;BME280;45925;45.544;6.756;2022-09-09T00:26:00;87139.53;;;13.13;59.09
60049;BME280;45925;45.544;6.756;2022-09-09T00:31:12;87139.84;;;13.12;59.20
60049;BME280;45925;45.544;6.756;2022-09-09T00:36:16;87139.53;;;13.01;59.41
60049;BME280;45925;45.544;6.756;2022-09-09T00:57:38;87137.53;;;12.94;60.03
60049;BME280;45925;45.544;6.756;2022-09-09T01:02:47;87136.19;;;13.13;60.25
60049;BME280;45925;45.544;6.756;2022-09-09T01:07:52;87119.72;;;13.17;59.59
60049;BME280;45925;45.544;6.756;2022-09-09T01:12:56;87109.81;;;13.19;60.83
60049;BME280;45925;45.544;6.756;2022-09-09T01:18:08;87110.84;;;13.02;60.62
60049;BME280;45925;45.544;6.756;2022-09-09T01:28:25;87113.16;;;13.20;59.82
60049;BME280;45925;45.544;6.756;2022-09-09T01:33:27;87107.84;;;13.29;59.43
60049;BME280;45925;45.544;6.756;2022-09-09T01:38:28;87107.38;;;12.98;60.18
60049;BME280;45925;45.544;6.756;2022-09-09T01:43:30;87096.69;;;13.25;60.66
60049;BME280;45925;45.544;6.756;2022-09-09T01:48:31;87093.28;;;13.08;60.97
60049;BME280;45925;45.544;6.756;2022-09-09T01:53:32;87099.94;;;13.21;59.45
60049;BME280;45925;45.544;6.756;2022-09-09T01:58:45;87094.09;;;13.25;59.54
60049;BME280;45925;45.544;6.756;2022-09-09T02:03:52;87093.56;;;13.19;59.45
60049;BME280;45925;45.544;6.756;2022-09-09T02:08:59;87098.94;;;13.26;60.17
60049;BME280;45925;45.544;6.756;2022-09-09T02:14:06;87100.16;;;13.16;59.83
60049;BME280;45925;45.544;6.756;2022-09-09T02:19:12;87112.19;;;13.25;59.02
60049;BME280;45925;45.544;6.756;2022-09-09T02:24:15;87120.00;;;13.28;59.60
60049;BME280;45925;45.544;6.756;2022-09-09T02:29:22;87122.91;;;12.74;61.10
60049;BME280;45925;45.544;6.756;2022-09-09T02:34:26;87118.34;;;13.08;61.48
60049;BME280;45925;45.544;6.756;2022-09-09T02:39:27;87115.28;;;12.77;62.54
60049;BME280;45925;45.544;6.756;2022-09-09T02:44:28;87118.44;;;13.11;62.16
60049;BME280;45925;45.544;6.756;2022-09-09T02:49:51;87113.66;;;12.97;64.41
60049;BME280;45925;45.544;6.756;2022-09-09T02:54:59;87116.44;;;12.92;65.18
60049;BME280;45925;45.544;6.756;2022-09-09T03:00:03;87118.34;;;12.95;64.63
60049;BME280;45925;45.544;6.756;2022-09-09T03:05:06;87107.44;;;12.61;65.27
60049;BME280;45925;45.544;6.756;2022-09-09T03:10:07;87098.84;;;12.69;64.61
60049;BME280;45925;45.544;6.756;2022-09-09T03:15:08;87100.13;;;12.63;63.78
60049;BME280;45925;45.544;6.756;2022-09-09T03:20:10;87099.06;;;12.64;62.79
60049;BME280;45925;45.544;6.756;2022-09-09T03:25:10;87097.56;;;12.26;63.22
60049;BME280;45925;45.544;6.756;2022-09-09T03:30:11;87103.91;;;12.41;62.54
60049;BME280;45925;45.544;6.756;2022-09-09T03:35:12;87101.97;;;12.38;62.67
60049;BME280;45925;45.544;6.756;2022-09-09T03:40:12;87097.75;;;12.33;61.76
60049;BME280;45925;45.544;6.756;2022-09-09T03:45:13;87103.09;;;12.04;62.91
60049;BME280;45925;45.544;6.756;2022-09-09T03:50:14;87101.38;;;11.95;64.03
60049;BME280;45925;45.544;6.756;2022-09-09T03:55:15;87094.78;;;11.86;63.80
60049;BME280;45925;45.544;6.756;2022-09-09T04:00:16;87101.38;;;11.62;65.11
60049;BME280;45925;45.544;6.756;2022-09-09T04:05:16;87101.22;;;11.79;64.05
60049;BME280;45925;45.544;6.756;2022-09-09T04:10:17;87104.66;;;11.84;64.11
60049;BME280;45925;45.544;6.756;2022-09-09T04:15:17;87105.00;;;11.82;64.05
60049;BME280;45925;45.544;6.756;2022-09-09T04:20:18;87099.84;;;11.82;63.53
60049;BME280;45925;45.544;6.756;2022-09-09T04:25:19;87104.84;;;11.66;63.89
60049;BME280;45925;45.544;6.756;2022-09-09T04:30:20;87102.16;;;11.75;62.79
60049;BME280;45925;45.544;6.756;2022-09-09T04:35:21;87103.53;;;11.60;64.65
60049;BME280;45925;45.544;6.756;2022-09-09T04:40:21;87106.81;;;11.48;64.11
60049;BME280;45925;45.544;6.756;2022-09-09T04:45:22;87110.53;;;11.72;62.59
60049;BME280;45925;45.544;6.756;2022-09-09T04:50:23;87108.91;;;11.67;62.53
60049;BME280;45925;45.544;6.756;2022-09-09T04:55:23;87126.41;;;11.62;63.48
60049;BME280;45925;45.544;6.756;2022-09-09T05:00:24;87124.66;;;11.53;63.29
60049;BME280;45925;45.544;6.756;2022-09-09T05:05:25;87126.13;;;11.42;63.47
60049;BME280;45925;45.544;6.756;2022-09-09T05:10:26;87127.56;;;11.52;63.66
60049;BME280;45925;45.544;6.756;2022-09-09T05:15:26;87123.25;;;11.56;63.62
60049;BME280;45925;45.544;6.756;2022-09-09T05:20:27;87118.63;;;11.49;63.92
60049;BME280;45925;45.544;6.756;2022-09-09T05:25:28;87118.63;;;11.49;63.16
60049;BME280;45925;45.544;6.756;2022-09-09T05:30:28;87120.16;;;11.29;63.91
60049;BME280;45925;45.544;6.756;2022-09-09T05:35:29;87115.38;;;11.40;63.00
60049;BME280;45925;45.544;6.756;2022-09-09T05:40:30;87126.03;;;11.51;62.74
60049;BME280;45925;45.544;6.756;2022-09-09T05:45:30;87130.44;;;11.50;62.35
60049;BME280;45925;45.544;6.756;2022-09-09T05:50:31;87145.19;;;11.41;63.08
60049;BME280;45925;45.544;6.756;2022-09-09T05:55:32;87154.44;;;11.42;63.49
60049;BME280;45925;45.544;6.756;2022-09-09T06:00:32;87154.31;;;11.17;64.28
60049;BME280;45925;45.544;6.756;2022-09-09T06:05:33;87146.66;;;11.30;64.12
60049;BME280;45925;45.544;6.756;2022-09-09T06:10:35;87142.38;;;11.34;64.01
60049;BME280;45925;45.544;6.756;2022-09-09T06:15:35;87139.38;;;11.32;63.41
60049;BME280;45925;45.544;6.756;2022-09-09T06:20:36;87141.75;;;11.16;64.62
60049;BME280;45925;45.544;6.756;2022-09-09T06:25:36;87144.56;;;11.02;65.48
60049;BME280;45925;45.544;6.756;2022-09-09T06:30:41;87139.44;;;11.02;65.79
60049;BME280;45925;45.544;6.756;2022-09-09T06:35:42;87135.28;;;11.31;64.28
60049;BME280;45925;45.544;6.756;2022-09-09T06:40:42;87132.34;;;10.99;64.66
60049;BME280;45925;45.544;6.756;2022-09-09T06:45:52;87127.13;;;11.29;64.91
60049;BME280;45925;45.544;6.756;2022-09-09T06:51:18;87130.69;;;11.36;65.05
60049;BME280;45925;45.544;6.756;2022-09-09T07:01:26;87121.84;;;11.46;64.53
60049;BME280;45925;45.544;6.756;2022-09-09T07:06:32;87122.03;;;11.41;64.69
60049;BME280;45925;45.544;6.756;2022-09-09T07:11:37;87130.81;;;11.61;64.40
60049;BME280;45925;45.544;6.756;2022-09-09T07:16:39;87133.88;;;11.54;65.20
60049;BME280;45925;45.544;6.756;2022-09-09T07:21:39;87127.72;;;11.68;65.17
60049;BME280;45925;45.544;6.756;2022-09-09T07:26:40;87129.34;;;11.72;65.06
60049;BME280;45925;45.544;6.756;2022-09-09T07:31:41;87131.59;;;11.86;64.67
60049;BME280;45925;45.544;6.756;2022-09-09T07:36:41;87130.91;;;11.98;63.89
60049;BME280;45925;45.544;6.756;2022-09-09T07:41:47;87135.22;;;12.06;64.20
60049;BME280;45925;45.544;6.756;2022-09-09T07:46:48;87130.63;;;12.12;63.63
60049;BME280;45925;45.544;6.756;2022-09-09T07:51:48;87133.75;;;12.18;63.33
60049;BME280;45925;45.544;6.756;2022-09-09T07:56:50;87127.16;;;11.95;64.95
60049;BME280;45925;45.544;6.756;2022-09-09T08:01:51;87127.97;;;12.45;62.51
60049;BME280;45925;45.544;6.756;2022-09-09T08:06:57;87129.13;;;12.23;63.33
60049;BME280;45925;45.544;6.756;2022-09-09T08:11:59;87127.22;;;12.32;62.41
60049;BME280;45925;45.544;6.756;2022-09-09T08:17:00;87127.66;;;12.47;62.30
60049;BME280;45925;45.544;6.756;2022-09-09T08:22:00;87129.56;;;12.87;60.89
60049;BME280;45925;45.544;6.756;2022-09-09T08:27:02;87124.81;;;13.01;60.26
60049;BME280;45925;45.544;6.756;2022-09-09T08:32:02;87128.50;;;12.88;61.18
60049;BME280;45925;45.544;6.756;2022-09-09T08:37:03;87138.50;;;12.90;60.74
60049;BME280;45925;45.544;6.756;2022-09-09T08:42:34;87147.28;;;13.13;61.00
60049;BME280;45925;45.544;6.756;2022-09-09T08:53:30;87144.81;;;13.04;61.69
60049;BME280;45925;45.544;6.756;2022-09-09T08:58:45;87139.63;;;13.17;60.97
60049;BME280;45925;45.544;6.756;2022-09-09T09:09:47;87152.00;;;13.64;60.41
60049;BME280;45925;45.544;6.756;2022-09-09T09:14:49;87141.81;;;13.84;51.73
60049;BME280;45925;45.544;6.756;2022-09-09T09:19:50;87136.59;;;14.12;46.36
60049;BME280;45925;45.544;6.756;2022-09-09T09:30:12;87130.72;;;14.43;43.06
60049;BME280;45925;45.544;6.756;2022-09-09T09:35:14;87116.88;;;14.67;39.55
60049;BME280;45925;45.544;6.756;2022-09-09T09:40:17;87130.63;;;14.72;36.09
60049;BME280;45925;45.544;6.756;2022-09-09T09:45:41;87129.53;;;14.89;35.89
60049;BME280;45925;45.544;6.756;2022-09-09T09:50:55;87127.78;;;14.93;35.12
60049;BME280;45925;45.544;6.756;2022-09-09T10:00:57;87122.47;;;15.21;31.34
60049;BME280;45925;45.544;6.756;2022-09-09T10:05:58;87122.53;;;15.25;30.08
60049;BME280;45925;45.544;6.756;2022-09-09T10:22:05;87094.75;;;15.61;29.32
60049;BME280;45925;45.544;6.756;2022-09-09T10:27:25;87099.38;;;15.71;29.94
60049;BME280;45925;45.544;6.756;2022-09-09T10:42:43;87084.81;;;16.05;27.50
60049;BME280;45925;45.544;6.756;2022-09-09T10:47:57;87104.66;;;16.17;27.32
60049;BME280;45925;45.544;6.756;2022-09-09T10:54:06;87102.41;;;16.16;27.21
60049;BME280;45925;45.544;6.756;2022-09-09T10:59:10;87094.50;;;16.32;27.17
60049;BME280;45925;45.544;6.756;2022-09-09T11:04:33;87079.06;;;16.39;27.75
60049;BME280;45925;45.544;6.756;2022-09-09T11:09:40;87092.31;;;16.57;27.56
60049;BME280;45925;45.544;6.756;2022-09-09T11:14:51;87096.13;;;16.63;26.33
60049;BME280;45925;45.544;6.756;2022-09-09T11:19:55;87097.41;;;16.76;26.63
60049;BME280;45925;45.544;6.756;2022-09-09T11:30:06;87099.78;;;16.85;27.11
60049;BME280;45925;45.544;6.756;2022-09-09T11:35:26;87078.94;;;17.05;26.25
60049;BME280;45925;45.544;6.756;2022-09-09T11:40:32;87087.53;;;17.09;27.83
60049;BME280;45925;45.544;6.756;2022-09-09T11:45:34;87093.63;;;17.20;28.47
60049;BME280;45925;45.544;6.756;2022-09-09T11:50:37;87079.53;;;17.21;28.75
60049;BME280;45925;45.544;6.756;2022-09-09T11:55:38;87088.56;;;17.31;28.19
60049;BME280;45925;45.544;6.756;2022-09-09T12:00:41;87076.94;;;17.51;29.19
60049;BME280;45925;45.544;6.756;2022-09-09T12:05:45;87078.69;;;17.78;28.89
60049;BME280;45925;45.544;6.756;2022-09-09T12:10:57;87102.59;;;18.21;29.18
60049;BME280;45925;45.544;6.756;2022-09-09T12:16:01;87092.22;;;18.69;27.77
60049;BME280;45925;45.544;6.756;2022-09-09T12:26:34;87102.91;;;20.81;23.98
60049;BME280;45925;45.544;6.756;2022-09-09T12:37:05;87084.94;;;22.51;21.37
60049;BME280;45925;45.544;6.756;2022-09-09T12:42:16;87093.69;;;23.38;20.30
60049;BME280;45925;45.544;6.756;2022-09-09T12:47:18;87078.97;;;23.90;20.17
60049;BME280;45925;45.544;6.756;2022-09-09T12:52:40;87090.19;;;24.24;20.30
60049;BME280;45925;45.544;6.756;2022-09-09T12:57:42;87098.72;;;24.94;19.63
60049;BME280;45925;45.544;6.756;2022-09-09T13:02:50;87081.25;;;21.13;20.89
60049;BME280;45925;45.544;6.756;2022-09-09T13:07:51;87080.66;;;24.69;20.00
60049;BME280;45925;45.544;6.756;2022-09-09T13:12:52;87091.09;;;25.27;19.04
60049;BME280;45925;45.544;6.756;2022-09-09T13:18:04;87088.41;;;25.78;18.69
60049;BME280;45925;45.544;6.756;2022-09-09T13:23:11;87093.56;;;25.10;19.84
60049;BME280;45925;45.544;6.756;2022-09-09T13:28:21;87082.53;;;25.90;21.78
60049;BME280;45925;45.544;6.756;2022-09-09T13:33:22;87092.06;;;25.84;21.11
60049;BME280;45925;45.544;6.756;2022-09-09T13:38:23;87100.34;;;26.63;19.83
60049;BME280;45925;45.544;6.756;2022-09-09T13:43:26;87084.28;;;26.57;19.34
60049;BME280;45925;45.544;6.756;2022-09-09T13:48:27;87085.06;;;27.27;19.00
60049;BME280;45925;45.544;6.756;2022-09-09T13:53:28;87069.53;;;28.37;18.50
60049;BME280;45925;45.544;6.756;2022-09-09T13:58:29;87094.19;;;27.42;18.93
60049;BME280;45925;45.544;6.756;2022-09-09T14:03:30;87092.09;;;26.24;19.00
60049;BME280;45925;45.544;6.756;2022-09-09T14:08:30;87104.22;;;27.31;19.28
60049;BME280;45925;45.544;6.756;2022-09-09T14:13:37;87089.44;;;27.67;18.33
60049;BME280;45925;45.544;6.756;2022-09-09T14:18:37;87090.81;;;25.68;19.99
60049;BME280;45925;45.544;6.756;2022-09-09T14:23:39;87109.63;;;25.67;20.74
60049;BME280;45925;45.544;6.756;2022-09-09T14:28:40;87117.22;;;25.14;22.01
60049;BME280;45925;45.544;6.756;2022-09-09T14:33:41;87128.91;;;24.20;22.73
60049;BME280;45925;45.544;6.756;2022-09-09T14:38:42;87102.94;;;24.61;23.40
60049;BME280;45925;45.544;6.756;2022-09-09T14:43:43;87124.78;;;24.50;21.79
60049;BME280;45925;45.544;6.756;2022-09-09T14:48:44;87126.41;;;24.40;23.69
60049;BME280;45925;45.544;6.756;2022-09-09T14:53:46;87133.03;;;23.38;23.91
60049;BME280;45925;45.544;6.756;2022-09-09T14:58:47;87142.25;;;25.49;22.86
60049;BME280;45925;45.544;6.756;2022-09-09T15:08:53;87131.94;;;26.26;21.41
60049;BME280;45925;45.544;6.756;2022-09-09T15:13:54;87147.94;;;25.72;21.37
60049;BME280;45925;45.544;6.756;2022-09-09T15:18:56;87142.53;;;26.02;22.14
60049;BME280;45925;45.544;6.756;2022-09-09T15:23:58;87140.94;;;26.29;22.62
60049;BME280;45925;45.544;6.756;2022-09-09T15:28:59;87149.84;;;24.89;23.40
60049;BME280;45925;45.544;6.756;2022-09-09T15:34:02;87148.78;;;23.80;26.00
60049;BME280;45925;45.544;6.756;2022-09-09T15:39:06;87139.06;;;22.75;25.82
60049;BME280;45925;45.544;6.756;2022-09-09T15:44:08;87142.03;;;22.81;26.08
60049;BME280;45925;45.544;6.756;2022-09-09T15:54:17;87154.41;;;21.60;27.46
60049;BME280;45925;45.544;6.756;2022-09-09T15:59:18;87152.56;;;21.35;27.13
60049;BME280;45925;45.544;6.756;2022-09-09T16:04:19;87146.94;;;21.33;28.16
60049;BME280;45925;45.544;6.756;2022-09-09T16:09:23;87149.00;;;19.46;29.72
60049;BME280;45925;45.544;6.756;2022-09-09T16:14:24;87155.19;;;21.06;27.93
60049;BME280;45925;45.544;6.756;2022-09-09T16:19:28;87153.19;;;20.45;28.45
60049;BME280;45925;45.544;6.756;2022-09-09T16:24:28;87170.00;;;20.62;29.21
60049;BME280;45925;45.544;6.756;2022-09-09T16:29:29;87165.50;;;20.41;28.70
60049;BME280;45925;45.544;6.756;2022-09-09T16:34:29;87158.03;;;20.40;29.32
60049;BME280;45925;45.544;6.756;2022-09-09T16:39:30;87169.91;;;20.23;29.41
60049;BME280;45925;45.544;6.756;2022-09-09T16:44:30;87172.09;;;20.10;29.45
60049;BME280;45925;45.544;6.756;2022-09-09T16:49:31;87183.09;;;18.06;33.47
60049;BME280;45925;45.544;6.756;2022-09-09T16:54:32;87173.31;;;19.61;31.27
60049;BME280;45925;45.544;6.756;2022-09-09T16:59:32;87185.03;;;18.51;32.93
60049;BME280;45925;45.544;6.756;2022-09-09T17:04:33;87179.34;;;17.73;34.36
60049;BME280;45925;45.544;6.756;2022-09-09T17:09:33;87183.81;;;18.75;32.61
60049;BME280;45925;45.544;6.756;2022-09-09T17:14:34;87179.47;;;18.86;33.61
60049;BME280;45925;45.544;6.756;2022-09-09T17:19:34;87183.09;;;18.78;34.69
60049;BME280;45925;45.544;6.756;2022-09-09T17:24:35;87175.59;;;18.73;34.39
60049;BME280;45925;45.544;6.756;2022-09-09T17:29:38;87176.44;;;17.52;36.96
60049;BME280;45925;45.544;6.756;2022-09-09T17:34:39;87172.94;;;17.67;37.48
60049;BME280;45925;45.544;6.756;2022-09-09T17:39:40;87174.13;;;17.73;36.12
60049;BME280;45925;45.544;6.756;2022-09-09T17:44:40;87194.59;;;16.33;38.51
60049;BME280;45925;45.544;6.756;2022-09-09T17:49:41;87191.03;;;17.33;36.44
60049;BME280;45925;45.544;6.756;2022-09-09T17:54:43;87204.53;;;17.43;35.78
60049;BME280;45925;45.544;6.756;2022-09-09T17:59:43;87213.31;;;16.42;35.41
60049;BME280;45925;45.544;6.756;2022-09-09T18:04:44;87212.53;;;16.84;35.69
60049;BME280;45925;45.544;6.756;2022-09-09T18:09:44;87217.91;;;16.95;34.81
60049;BME280;45925;45.544;6.756;2022-09-09T18:14:45;87220.66;;;17.02;34.81
60049;BME280;45925;45.544;6.756;2022-09-09T18:19:47;87235.19;;;17.07;34.72
60049;BME280;45925;45.544;6.756;2022-09-09T18:24:49;87225.94;;;17.09;34.99
60049;BME280;45925;45.544;6.756;2022-09-09T18:29:49;87237.72;;;15.47;37.45
60049;BME280;45925;45.544;6.756;2022-09-09T18:34:50;87244.16;;;16.47;36.66
60049;BME280;45925;45.544;6.756;2022-09-09T18:39:50;87250.94;;;16.75;35.39
60049;BME280;45925;45.544;6.756;2022-09-09T18:44:52;87252.34;;;16.49;35.92
60049;BME280;45925;45.544;6.756;2022-09-09T18:49:52;87262.28;;;16.66;35.58
60049;BME280;45925;45.544;6.756;2022-09-09T18:54:53;87273.31;;;16.40;36.02
60049;BME280;45925;45.544;6.756;2022-09-09T18:59:53;87266.00;;;16.26;36.23
60049;BME280;45925;45.544;6.756;2022-09-09T19:04:54;87271.19;;;16.46;35.96
60049;BME280;45925;45.544;6.756;2022-09-09T19:09:55;87270.69;;;15.82;38.08
60049;BME280;45925;45.544;6.756;2022-09-09T19:14:56;87272.97;;;16.22;37.83
60049;BME280;45925;45.544;6.756;2022-09-09T19:19:56;87275.03;;;16.13;37.71
60049;BME280;45925;45.544;6.756;2022-09-09T19:24:57;87284.47;;;15.70;36.93
60049;BME280;45925;45.544;6.756;2022-09-09T19:29:59;87292.94;;;15.51;37.56
60049;BME280;45925;45.544;6.756;2022-09-09T19:34:59;87307.25;;;15.29;39.25
60049;BME280;45925;45.544;6.756;2022-09-09T19:40:02;87309.41;;;14.38;41.97
60049;BME280;45925;45.544;6.756;2022-09-09T19:45:04;87306.41;;;15.25;40.57
60049;BME280;45925;45.544;6.756;2022-09-09T19:50:06;87307.34;;;15.32;40.64
60049;BME280;45925;45.544;6.756;2022-09-09T19:55:07;87310.25;;;14.99;42.20
60049;BME280;45925;45.544;6.756;2022-09-09T20:00:09;87308.16;;;15.04;41.78
60049;BME280;45925;45.544;6.756;2022-09-09T20:05:09;87302.78;;;14.25;44.23
60049;BME280;45925;45.544;6.756;2022-09-09T20:10:10;87297.19;;;13.82;44.60
60049;BME280;45925;45.544;6.756;2022-09-09T20:15:10;87299.31;;;14.33;42.79
60049;BME280;45925;45.544;6.756;2022-09-09T20:20:12;87299.78;;;14.23;43.86
60049;BME280;45925;45.544;6.756;2022-09-09T20:25:12;87286.81;;;13.94;44.69
60049;BME280;45925;45.544;6.756;2022-09-09T20:30:14;87294.09;;;13.52;44.62
60049;BME280;45925;45.544;6.756;2022-09-09T20:35:15;87286.31;;;13.76;43.51
60049;BME280;45925;45.544;6.756;2022-09-09T20:40:15;87283.88;;;13.68;45.53
60049;BME280;45925;45.544;6.756;2022-09-09T20:45:16;87283.41;;;12.92;46.05
60049;BME280;45925;45.544;6.756;2022-09-09T20:50:17;87288.63;;;14.06;43.05
60049;BME280;45925;45.544;6.756;2022-09-09T20:55:17;87286.56;;;13.59;45.46
60049;BME280;45925;45.544;6.756;2022-09-09T21:00:18;87289.34;;;13.66;44.49
60049;BME280;45925;45.544;6.756;2022-09-09T21:05:18;87286.78;;;13.41;43.38
60049;BME280;45925;45.544;6.756;2022-09-09T21:10:19;87279.25;;;13.49;43.82
60049;BME280;45925;45.544;6.756;2022-09-09T21:15:19;87285.91;;;12.88;46.78
60049;BME280;45925;45.544;6.756;2022-09-09T21:20:20;87289.97;;;12.77;47.17
60049;BME280;45925;45.544;6.756;2022-09-09T21:25:20;87289.31;;;12.92;46.78
60049;BME280;45925;45.544;6.756;2022-09-09T21:30:21;87285.59;;;12.44;47.51
60049;BME280;45925;45.544;6.756;2022-09-09T21:35:22;87288.91;;;12.44;47.47
60049;BME280;45925;45.544;6.756;2022-09-09T21:40:22;87287.38;;;12.89;46.53
60049;BME280;45925;45.544;6.756;2022-09-09T21:45:24;87293.94;;;12.74;48.09
60049;BME280;45925;45.544;6.756;2022-09-09T21:50:27;87293.78;;;12.58;46.89
60049;BME280;45925;45.544;6.756;2022-09-09T21:55:27;87298.78;;;12.88;45.33
60049;BME280;45925;45.544;6.756;2022-09-09T22:00:28;87304.13;;;12.83;45.36
60049;BME280;45925;45.544;6.756;2022-09-09T22:05:30;87300.47;;;12.72;45.12
60049;BME280;45925;45.544;6.756;2022-09-09T22:10:30;87300.09;;;12.94;45.75
60049;BME280;45925;45.544;6.756;2022-09-09T22:15:31;87294.63;;;12.62;47.41
60049;BME280;45925;45.544;6.756;2022-09-09T22:20:37;87304.19;;;13.20;46.08
60049;BME280;45925;45.544;6.756;2022-09-09T22:25:39;87303.50;;;12.86;47.08
60049;BME280;45925;45.544;6.756;2022-09-09T22:30:40;87300.13;;;13.31;45.04
60049;BME280;45925;45.544;6.756;2022-09-09T22:35:41;87307.28;;;12.43;46.43
60049;BME280;45925;45.544;6.756;2022-09-09T22:40:42;87310.50;;;12.85;46.03
60049;BME280;45925;45.544;6.756;2022-09-09T22:45:42;87312.13;;;12.90;46.26
60049;BME280;45925;45.544;6.756;2022-09-09T22:50:44;87315.69;;;12.52;47.07
60049;BME280;45925;45.544;6.756;2022-09-09T22:55:58;87320.25;;;12.80;47.22
60049;BME280;45925;45.544;6.756;2022-09-09T23:00:59;87314.06;;;13.18;47.08
60049;BME280;45925;45.544;6.756;2022-09-09T23:06:01;87318.78;;;12.79;48.90
60049;BME280;45925;45.544;6.756;2022-09-09T23:11:05;87329.72;;;12.09;50.63
60049;BME280;45925;45.544;6.756;2022-09-09T23:21:11;87339.72;;;11.59;54.06
60049;BME280;45925;45.544;6.756;2022-09-09T23:26:13;87336.94;;;12.49;53.23
60049;BME280;45925;45.544;6.756;2022-09-09T23:31:20;87341.78;;;11.96;55.23
60049;BME280;45925;45.544;6.756;2022-09-09T23:36:23;87355.84;;;11.69;55.83
60049;BME280;45925;45.544;6.756;2022-09-09T23:41:24;87356.38;;;12.67;54.43
60049;BME280;45925;45.544;6.756;2022-09-09T23:46:26;87355.09;;;12.86;53.59
60049;BME280;45925;45.544;6.756;2022-09-09T23:51:28;87352.75;;;12.81;56.22
60049;BME280;45925;45.544;6.756;2022-09-09T23:56:35;87351.16;;;12.89;55.51
